Bradley, Oklahoma
Current Conditions -  °F | °C
As of 6:55 AM on Monday 22 Dec 2014 (Local Time) from KCHK Reporting Station
Haze Haze  
Wind Chill: 43°   Ceiling: NA
Heat Index: 43°   Visibility: 3mi
Dew Point: 43°   Wind: 0mph
Humidity: 100%   Direction: NA
Pressure: 29.58"   Gusts: NA
Location:  34.88°N, 97.71°W
Report Text: KCHK 221255Z AUTO 00000KT 3SM BR 06/06 A2958 RMK AO2 SKY OBSCURED
Loading
Personal Weather Stations






























Interactive Weather Map New forecast layout! Learn more

10-Day Weather Forecast

Advertisements
Track Severe Weather on mobile